Time;durP1;ratioP1;P1;durP2;ratioP2;P2;SDS_P1;SDS_P2;PMS_P1;PMS_P2;Temp;Humidity;BMP_temperature;BMP_pressure;BME280_temperature;BME280_humidity;BME280_pressure;Samples;Min_cycle;Max_cycle;Signal;HPM_P1;HPM_P2
2022/03/28 00:01:55;;;;;;;14.27;12.63;;;8.40;99.90;;;;;;5013674;28;20191;-66
2022/03/28 00:04:21;;;;;;;16.77;13.37;;;8.40;99.90;;;;;;5014055;28;20650;-66
2022/03/28 00:06:46;;;;;;;16.73;14.03;;;8.40;99.90;;;;;;5013258;28;20198;-66
2022/03/28 00:09:12;;;;;;;15.40;13.43;;;8.40;99.90;;;;;;5013044;28;20170;-66
2022/03/28 00:11:38;;;;;;;15.47;13.63;;;8.40;99.90;;;;;;5013448;28;20191;-66
2022/03/28 00:14:04;;;;;;;19.03;15.07;;;8.40;99.90;;;;;;5013776;28;20172;-66
2022/03/28 00:16:30;;;;;;;17.37;14.37;;;8.40;99.90;;;;;;5012916;28;20461;-66
2022/03/28 00:18:55;;;;;;;15.50;13.87;;;8.40;99.90;;;;;;5012401;28;20180;-66
2022/03/28 00:21:21;;;;;;;20.20;14.43;;;8.40;99.90;;;;;;5013490;28;20222;-66
2022/03/28 00:23:47;;;;;;;18.07;15.07;;;8.40;99.90;;;;;;5013681;28;20196;-66
2022/03/28 00:26:12;;;;;;;15.83;14.03;;;8.40;99.90;;;;;;5012830;28;20219;-66
2022/03/28 00:28:38;;;;;;;18.47;15.40;;;8.40;99.90;;;;;;5013483;28;20172;-66
2022/03/28 00:31:04;;;;;;;16.63;13.63;;;8.30;99.90;;;;;;5013366;28;20642;-66
2022/03/28 00:33:30;;;;;;;17.50;14.43;;;8.30;99.90;;;;;;5013410;28;20211;-66
2022/03/28 00:35:55;;;;;;;19.23;15.57;;;8.30;99.90;;;;;;5012667;28;20172;-66
2022/03/28 00:38:21;;;;;;;15.50;13.90;;;8.20;99.90;;;;;;5013264;28;20626;-66
2022/03/28 00:40:47;;;;;;;18.53;13.90;;;8.20;99.90;;;;;;5013063;28;20642;-66
2022/03/28 00:43:12;;;;;;;18.17;14.20;;;8.20;99.90;;;;;;5011875;28;20670;-66
2022/03/28 00:45:40;;;;;;;18.10;15.33;;;8.10;99.90;;;;;;5012686;28;20245;-66
2022/03/28 00:48:07;;;;;;;16.83;14.03;;;8.10;99.90;;;;;;5013050;28;20200;-66
2022/03/28 00:50:34;;;;;;;16.73;14.23;;;8.00;99.90;;;;;;5011560;28;20184;-66
2022/03/28 00:53:00;;;;;;;17.37;14.67;;;8.00;99.90;;;;;;5011735;28;20180;-66
2022/03/28 00:55:26;;;;;;;16.70;13.60;;;8.00;99.90;;;;;;5012394;28;20234;-66
2022/03/28 00:57:53;;;;;;;16.20;14.53;;;8.00;99.90;;;;;;5012952;28;20199;-66
2022/03/28 01:00:19;;;;;;;18.90;15.03;;;8.10;99.90;;;;;;5012438;28;20184;-66
2022/03/28 01:02:46;;;;;;;18.87;15.60;;;8.10;99.90;;;;;;5012683;28;20214;-66
2022/03/28 01:05:12;;;;;;;19.53;14.43;;;8.00;99.90;;;;;;5012218;28;20183;-66
2022/03/28 01:07:39;;;;;;;21.67;15.23;;;8.00;99.90;;;;;;5012794;28;20188;-66
2022/03/28 01:10:06;;;;;;;17.90;16.10;;;8.00;99.90;;;;;;5012182;28;20176;-66
2022/03/28 01:12:34;;;;;;;17.10;15.13;;;8.00;99.90;;;;;;5011460;28;20198;-66
2022/03/28 01:15:00;;;;;;;16.40;14.70;;;8.00;99.90;;;;;;5011004;28;20219;-66
2022/03/28 01:20:11;;;;;;;17.87;15.40;;;7.90;99.90;;;;;;5011491;28;20242;-66
2022/03/28 01:22:37;;;;;;;17.20;15.40;;;7.90;99.90;;;;;;5011218;28;20572;-66
2022/03/28 01:25:05;;;;;;;19.73;14.47;;;7.90;99.90;;;;;;5011170;28;20275;-66
2022/03/28 01:27:32;;;;;;;15.47;13.57;;;7.90;99.90;;;;;;5012436;28;20563;-66
2022/03/28 01:29:58;;;;;;;16.57;14.40;;;7.90;99.90;;;;;;5012211;28;20187;-66
2022/03/28 01:32:23;;;;;;;21.30;14.97;;;7.90;99.90;;;;;;5011139;28;20180;-66
2022/03/28 01:34:49;;;;;;;18.70;15.13;;;7.90;99.90;;;;;;5011454;28;20558;-66
2022/03/28 01:37:15;;;;;;;18.23;13.90;;;7.90;99.90;;;;;;5011938;28;20685;-65
2022/03/28 01:39:40;;;;;;;18.60;14.53;;;7.90;99.90;;;;;;5012447;28;20184;-66
2022/03/28 01:42:06;;;;;;;17.53;14.10;;;7.80;99.90;;;;;;5011925;28;20545;-66
2022/03/28 01:44:32;;;;;;;19.47;14.73;;;7.80;99.90;;;;;;5010743;28;20176;-66
2022/03/28 01:46:58;;;;;;;17.53;14.13;;;7.70;99.90;;;;;;5012054;28;20203;-66
2022/03/28 01:49:23;;;;;;;15.13;13.53;;;7.70;99.90;;;;;;5008484;28;20219;-66
2022/03/28 01:51:50;;;;;;;17.47;14.80;;;7.60;99.90;;;;;;4992395;28;20181;-66
2022/03/28 01:54:16;;;;;;;17.00;13.83;;;7.60;99.90;;;;;;4992616;28;20185;-66
2022/03/28 01:56:42;;;;;;;18.13;15.43;;;7.50;99.90;;;;;;5008675;28;20198;-66
2022/03/28 01:59:09;;;;;;;17.03;15.37;;;7.50;99.90;;;;;;5011968;28;20176;-66
2022/03/28 02:01:36;;;;;;;17.13;14.80;;;7.50;99.90;;;;;;5010471;28;20180;-66
2022/03/28 02:04:02;;;;;;;17.23;15.33;;;7.40;99.90;;;;;;5011793;28;20287;-66
2022/03/28 02:06:28;;;;;;;18.67;15.70;;;7.40;99.90;;;;;;5010110;28;20203;-66
2022/03/28 02:08:54;;;;;;;19.50;14.23;;;7.40;99.90;;;;;;5012073;28;20187;-66
2022/03/28 02:11:20;;;;;;;18.07;14.20;;;7.30;99.90;;;;;;5011646;28;20172;-66
2022/03/28 02:13:46;;;;;;;16.33;13.87;;;7.30;99.90;;;;;;5010237;28;20203;-66
2022/03/28 02:16:11;;;;;;;20.43;15.47;;;7.20;99.90;;;;;;5010549;28;20265;-66
2022/03/28 02:18:38;;;;;;;17.97;14.93;;;7.20;99.90;;;;;;5009831;28;20226;-66
2022/03/28 02:21:04;;;;;;;18.97;14.87;;;7.20;99.90;;;;;;5010255;28;20477;-66
2022/03/28 02:23:30;;;;;;;16.17;14.47;;;7.20;99.90;;;;;;5011478;28;20207;-66
2022/03/28 02:25:56;;;;;;;17.13;15.40;;;7.10;99.90;;;;;;5011158;28;20180;-66
2022/03/28 02:28:22;;;;;;;17.33;15.47;;;7.10;99.90;;;;;;5011555;28;20248;-66
2022/03/28 02:30:48;;;;;;;17.70;15.90;;;7.10;99.90;;;;;;5011471;28;20189;-66
2022/03/28 02:33:13;;;;;;;17.63;14.77;;;7.10;99.90;;;;;;5011800;28;20263;-66
2022/03/28 02:35:40;;;;;;;16.93;15.23;;;7.00;99.90;;;;;;5013419;28;20211;-66
2022/03/28 02:38:07;;;;;;;19.40;16.43;;;7.00;99.90;;;;;;5015718;28;20192;-66
2022/03/28 02:40:33;;;;;;;18.30;15.63;;;7.00;99.90;;;;;;5015655;28;20172;-66
2022/03/28 02:42:59;;;;;;;17.83;15.53;;;7.00;99.90;;;;;;5015192;28;20191;-66
2022/03/28 02:45:32;;;;;;;20.57;15.60;;;7.00;99.90;;;;;;5014939;28;20179;-66
2022/03/28 02:47:59;;;;;;;17.13;15.30;;;7.00;99.90;;;;;;5014329;28;20221;-66
2022/03/28 02:50:25;;;;;;;16.57;14.07;;;7.00;99.90;;;;;;5015279;28;20651;-66
2022/03/28 02:52:51;;;;;;;16.83;15.07;;;7.00;99.90;;;;;;4996062;28;20691;-66
2022/03/28 02:55:17;;;;;;;18.77;16.77;;;6.90;99.90;;;;;;4993922;28;20177;-66
2022/03/28 02:57:42;;;;;;;19.47;17.37;;;6.80;99.90;;;;;;5014075;28;20206;-67
2022/03/28 03:00:10;;;;;;;18.27;16.30;;;6.80;99.90;;;;;;5014076;28;20712;-67
2022/03/28 03:02:36;;;;;;;20.13;16.57;;;6.70;99.90;;;;;;5015305;28;20198;-66
2022/03/28 03:05:02;;;;;;;20.03;17.53;;;6.70;99.90;;;;;;5014713;28;20184;-66
2022/03/28 03:07:28;;;;;;;18.03;15.13;;;6.70;99.90;;;;;;5014762;28;20661;-67
2022/03/28 03:09:53;;;;;;;19.90;15.60;;;6.70;99.90;;;;;;5014691;28;20227;-65
2022/03/28 03:12:19;;;;;;;17.43;15.17;;;6.70;99.90;;;;;;5013773;28;20176;-66
2022/03/28 03:14:45;;;;;;;20.47;15.47;;;6.60;99.90;;;;;;5013076;28;20183;-67
2022/03/28 03:17:10;;;;;;;19.50;16.73;;;6.70;99.90;;;;;;5014762;28;20208;-66
2022/03/28 03:19:38;;;;;;;27.13;16.97;;;6.60;99.90;;;;;;5013566;28;20168;-67
2022/03/28 03:22:04;;;;;;;22.60;16.90;;;6.60;99.90;;;;;;5014472;28;20278;-67
2022/03/28 03:24:30;;;;;;;23.53;16.73;;;6.60;99.90;;;;;;5014033;28;20751;-66
2022/03/28 03:26:55;;;;;;;22.70;17.33;;;6.60;99.90;;;;;;5014355;28;20192;-66
2022/03/28 03:29:21;;;;;;;21.03;17.20;;;6.60;99.90;;;;;;5013041;28;20176;-66
2022/03/28 03:31:47;;;;;;;23.50;16.33;;;6.60;99.90;;;;;;5014745;28;20176;-66
2022/03/28 03:34:12;;;;;;;20.27;16.23;;;6.60;99.90;;;;;;5014346;28;20322;-66
2022/03/28 03:36:38;;;;;;;23.40;17.77;;;6.60;99.90;;;;;;5012900;28;20295;-66
2022/03/28 03:39:04;;;;;;;21.97;16.67;;;6.60;99.90;;;;;;5012778;28;20199;-66
2022/03/28 03:41:29;;;;;;;23.90;17.40;;;6.60;99.90;;;;;;5014563;28;20689;-66
2022/03/28 03:43:55;;;;;;;21.63;17.33;;;6.60;99.90;;;;;;5014340;28;20199;-66
2022/03/28 03:46:21;;;;;;;24.50;19.03;;;6.50;99.90;;;;;;5011721;28;20242;-65
2022/03/28 03:48:46;;;;;;;23.13;16.80;;;6.60;99.90;;;;;;5014010;28;20648;-67
2022/03/28 03:51:13;;;;;;;25.77;18.97;;;6.60;99.90;;;;;;5014085;28;20598;-65
2022/03/28 03:53:39;;;;;;;24.37;17.77;;;6.60;99.90;;;;;;5013073;28;20262;-66
2022/03/28 03:56:04;;;;;;;27.00;17.73;;;6.50;99.90;;;;;;5013618;28;20295;-66
2022/03/28 03:58:30;;;;;;;27.47;17.57;;;6.50;99.90;;;;;;5014105;28;20176;-66
2022/03/28 04:00:56;;;;;;;23.53;18.90;;;6.50;99.90;;;;;;5013595;28;20215;-66
2022/03/28 04:03:21;;;;;;;21.07;17.17;;;6.50;99.90;;;;;;5013719;28;20691;-66
2022/03/28 04:05:47;;;;;;;25.03;18.67;;;6.50;99.90;;;;;;5013738;28;20200;-66
2022/03/28 04:08:13;;;;;;;25.53;18.27;;;6.50;99.90;;;;;;5012473;28;20207;-66
2022/03/28 04:10:39;;;;;;;25.47;18.37;;;6.50;99.90;;;;;;5012704;28;20176;-65
2022/03/28 04:13:04;;;;;;;27.90;17.87;;;6.50;99.90;;;;;;5013745;28;20230;-66
2022/03/28 04:15:31;;;;;;;21.53;16.87;;;6.40;99.90;;;;;;5013844;28;20637;-67
2022/03/28 04:17:56;;;;;;;25.77;18.00;;;6.50;99.90;;;;;;5013577;28;20207;-65
2022/03/28 04:20:22;;;;;;;29.20;18.43;;;6.40;99.90;;;;;;5012287;28;20290;-66
2022/03/28 04:22:48;;;;;;;25.50;17.17;;;6.40;99.90;;;;;;5013191;28;20696;-65
2022/03/28 04:25:14;;;;;;;26.07;18.27;;;6.50;99.90;;;;;;5013210;28;20168;-66
2022/03/28 04:27:40;;;;;;;27.63;19.17;;;6.50;99.90;;;;;;5013150;28;20196;-66
2022/03/28 04:30:09;;;;;;;23.67;17.77;;;6.40;99.90;;;;;;5012107;28;20180;-65
2022/03/28 04:32:35;;;;;;;26.83;17.83;;;6.40;99.90;;;;;;5013012;28;20184;-65
2022/03/28 04:35:01;;;;;;;27.70;17.80;;;6.40;99.90;;;;;;5012594;28;20334;-65
2022/03/28 04:37:31;;;;;;;23.30;17.60;;;6.30;99.90;;;;;;5012870;28;20192;-65
2022/03/28 04:39:57;;;;;;;21.83;17.70;;;6.30;99.90;;;;;;5013066;28;20176;-65
2022/03/28 04:42:23;;;;;;;23.63;18.20;;;6.30;99.90;;;;;;5013237;28;20657;-65
2022/03/28 04:44:48;;;;;;;21.57;17.37;;;6.30;99.90;;;;;;5012249;28;20599;-66
2022/03/28 04:47:14;;;;;;;23.07;18.67;;;6.20;99.90;;;;;;5011440;28;20196;-65
2022/03/28 04:49:39;;;;;;;27.47;18.73;;;6.20;99.90;;;;;;5013086;28;20234;-66
2022/03/28 04:52:05;;;;;;;24.97;16.70;;;6.10;99.90;;;;;;5012820;28;20555;-66
2022/03/28 04:54:31;;;;;;;29.40;18.10;;;6.10;99.90;;;;;;5012701;28;20180;-66
2022/03/28 04:56:56;;;;;;;24.90;17.90;;;6.10;99.90;;;;;;5011138;28;20239;-66
2022/03/28 04:59:22;;;;;;;22.10;16.60;;;6.00;99.90;;;;;;5011714;28;20575;-66
2022/03/28 05:01:48;;;;;;;27.00;18.97;;;6.00;99.90;;;;;;5011392;28;20184;-66
2022/03/28 05:04:13;;;;;;;30.77;18.50;;;6.00;99.90;;;;;;5011433;28;20588;-66
2022/03/28 05:06:39;;;;;;;26.43;18.50;;;6.00;99.90;;;;;;5010896;28;20203;-66
2022/03/28 05:09:04;;;;;;;30.17;18.23;;;6.00;99.90;;;;;;5012663;28;20654;-66
2022/03/28 05:11:30;;;;;;;32.17;18.00;;;6.10;99.90;;;;;;5012579;28;20299;-66
2022/03/28 05:13:58;;;;;;;29.30;20.20;;;6.10;99.90;;;;;;5012505;28;20630;-66
2022/03/28 05:16:24;;;;;;;28.90;19.40;;;6.10;99.90;;;;;;5012118;28;20669;-66
2022/03/28 05:18:49;;;;;;;33.13;20.57;;;6.10;99.90;;;;;;5012524;28;20242;-66
2022/03/28 05:21:15;;;;;;;28.13;20.10;;;6.10;99.90;;;;;;5011031;28;20195;-66
2022/03/28 05:23:40;;;;;;;34.43;21.20;;;6.10;99.90;;;;;;5012824;28;20211;-66
2022/03/28 05:26:06;;;;;;;31.47;19.10;;;6.10;99.90;;;;;;5011782;28;20710;-66
2022/03/28 05:28:32;;;;;;;29.47;18.60;;;6.10;99.90;;;;;;5012530;28;20172;-66
2022/03/28 05:30:58;;;;;;;31.37;21.27;;;6.10;99.90;;;;;;5010602;28;20527;-66
2022/03/28 05:33:24;;;;;;;33.07;20.87;;;6.10;99.90;;;;;;5011884;28;20259;-66
2022/03/28 05:35:50;;;;;;;35.47;21.33;;;6.10;99.90;;;;;;5011977;28;20184;-66
2022/03/28 05:38:17;;;;;;;32.20;21.73;;;6.20;99.90;;;;;;5011773;28;20203;-66
2022/03/28 05:40:43;;;;;;;35.93;21.63;;;6.20;99.90;;;;;;5012135;28;20287;-66
2022/03/28 05:43:09;;;;;;;39.50;22.73;;;6.20;99.90;;;;;;5011768;28;20212;-66
2022/03/28 05:45:36;;;;;;;34.73;21.57;;;6.30;99.90;;;;;;5010665;28;20222;-66
2022/03/28 05:48:02;;;;;;;39.30;22.17;;;6.30;99.90;;;;;;5011956;28;20295;-66
2022/03/28 05:50:27;;;;;;;33.10;21.13;;;6.40;99.90;;;;;;5011199;28;20626;-66
2022/03/28 05:52:54;;;;;;;35.93;22.13;;;6.50;99.90;;;;;;5011944;28;20290;-66
2022/03/28 05:55:20;;;;;;;35.80;22.10;;;6.50;99.90;;;;;;5011773;28;20195;-66
2022/03/28 05:57:46;;;;;;;33.27;21.83;;;6.60;99.90;;;;;;5010647;28;20200;-66
2022/03/28 06:00:13;;;;;;;38.90;21.60;;;6.70;99.90;;;;;;5009956;28;20193;-66
2022/03/28 06:02:39;;;;;;;33.97;21.03;;;6.70;99.90;;;;;;4998025;28;20196;-66
2022/03/28 06:05:06;;;;;;;36.37;22.40;;;6.80;99.90;;;;;;4991938;28;20180;-66
2022/03/28 06:07:32;;;;;;;37.53;22.80;;;6.90;99.90;;;;;;4999617;28;20242;-66
2022/03/28 06:09:58;;;;;;;33.43;23.27;;;7.10;99.90;;;;;;5011260;28;20203;-66
2022/03/28 06:12:23;;;;;;;31.77;20.43;;;7.20;99.90;;;;;;5010335;28;20184;-66
2022/03/28 06:14:49;;;;;;;34.40;21.93;;;7.20;99.90;;;;;;5009142;28;20223;-66
2022/03/28 06:17:26;;;;;;;30.53;19.07;;;7.30;99.90;;;;;;5010974;28;20222;-66
2022/03/28 06:19:52;;;;;;;29.93;20.20;;;7.40;99.90;;;;;;5011280;28;20180;-66
2022/03/28 06:22:19;;;;;;;25.67;18.30;;;7.50;99.90;;;;;;5011520;28;20177;-66
2022/03/28 06:24:45;;;;;;;23.13;17.87;;;7.60;99.90;;;;;;5009848;28;20587;-66
2022/03/28 06:27:12;;;;;;;31.53;18.87;;;7.60;99.90;;;;;;5011258;28;20250;-66
2022/03/28 06:29:37;;;;;;;27.07;18.73;;;7.70;99.90;;;;;;5010068;28;20551;-66
2022/03/28 06:32:04;;;;;;;24.30;18.10;;;7.90;99.90;;;;;;5011250;28;20303;-66
2022/03/28 06:34:30;;;;;;;22.97;17.30;;;8.00;99.90;;;;;;5011119;28;20203;-66
2022/03/28 06:36:57;;;;;;;28.20;19.63;;;8.10;99.90;;;;;;5011098;28;20199;-66
2022/03/28 06:39:22;;;;;;;29.53;19.87;;;8.30;99.90;;;;;;5011401;28;20184;-66
2022/03/28 06:41:48;;;;;;;30.90;19.73;;;8.40;99.90;;;;;;5011264;28;20577;-66
2022/03/28 06:44:14;;;;;;;31.27;21.63;;;8.60;99.90;;;;;;5009578;28;20211;-66
2022/03/28 06:46:42;;;;;;;29.13;20.53;;;8.90;99.90;;;;;;5011073;28;20252;-66
2022/03/28 06:49:08;;;;;;;29.57;20.27;;;9.10;99.90;;;;;;5009660;28;20216;-66
2022/03/28 06:51:34;;;;;;;29.53;19.47;;;9.60;99.90;;;;;;5011550;28;20221;-66
2022/03/28 06:54:00;;;;;;;24.50;18.77;;;10.00;99.90;;;;;;5009552;28;20271;-66
2022/03/28 06:56:25;;;;;;;25.83;17.70;;;10.50;99.90;;;;;;5010716;28;20212;-66
2022/03/28 06:58:52;;;;;;;26.07;17.13;;;11.10;99.90;;;;;;5010809;28;20180;-66
2022/03/28 07:01:18;;;;;;;21.73;17.23;;;11.50;99.90;;;;;;5011246;28;20199;-66
2022/03/28 07:03:43;;;;;;;23.07;16.37;;;12.00;99.90;;;;;;5011301;28;20216;-66
2022/03/28 07:06:09;;;;;;;25.87;17.20;;;12.50;99.90;;;;;;5009071;28;20203;-66
2022/03/28 07:08:35;;;;;;;27.80;17.53;;;13.10;99.90;;;;;;5010728;28;20177;-66
2022/03/28 07:11:02;;;;;;;20.27;15.27;;;13.60;99.90;;;;;;5010984;28;20180;-66
2022/03/28 07:13:28;;;;;;;22.80;16.73;;;14.10;99.90;;;;;;5010844;28;20176;-66
2022/03/28 07:15:53;;;;;;;26.10;16.33;;;14.60;99.90;;;;;;5010801;28;20168;-66
2022/03/28 07:18:19;;;;;;;21.23;15.87;;;15.20;99.90;;;;;;5010485;28;20180;-71
2022/03/28 07:20:45;;;;;;;19.60;15.57;;;15.80;99.90;;;;;;5009785;28;20184;-67
2022/03/28 07:23:12;;;;;;;22.30;17.03;;;16.30;99.90;;;;;;5013153;28;20202;-66
2022/03/28 07:25:38;;;;;;;22.97;16.23;;;16.80;99.90;;;;;;5014696;28;20172;-66
2022/03/28 07:28:08;;;;;;;23.50;17.33;;;17.30;99.90;;;;;;5013978;28;20258;-66
2022/03/28 07:30:34;;;;;;;22.00;16.60;;;17.70;99.90;;;;;;5013204;28;20204;-66
2022/03/28 07:33:02;;;;;;;23.90;16.93;;;18.10;99.90;;;;;;5014012;28;20223;-67
2022/03/28 07:35:29;;;;;;;21.60;15.70;;;18.10;99.90;;;;;;5014649;28;20168;-66
2022/03/28 07:37:54;;;;;;;22.17;17.43;;;18.00;99.90;;;;;;5013825;28;20246;-66
2022/03/28 07:40:20;;;;;;;22.53;18.07;;;18.00;99.90;;;;;;4996246;28;20185;-66
2022/03/28 07:42:46;;;;;;;24.03;17.27;;;18.10;99.90;;;;;;5002888;28;20291;-66
2022/03/28 07:45:14;;;;;;;23.20;16.97;;;18.00;99.90;;;;;;5013722;28;20633;-66
2022/03/28 07:47:40;;;;;;;25.43;18.90;;;18.10;99.90;;;;;;5013947;28;20207;-66
2022/03/28 07:50:06;;;;;;;24.75;17.60;;;18.20;99.90;;;;;;5013951;28;20219;-66
2022/03/28 07:52:34;;;;;;;23.93;17.30;;;18.20;99.90;;;;;;5013968;28;20184;-66
2022/03/28 07:55:00;;;;;;;23.27;18.50;;;18.20;99.90;;;;;;5010744;28;20199;-66
2022/03/28 07:57:26;;;;;;;26.70;17.60;;;18.40;99.90;;;;;;5003243;28;20335;-67
2022/03/28 07:59:52;;;;;;;24.90;18.53;;;18.70;99.90;;;;;;4993083;28;20546;-67
2022/03/28 08:02:18;;;;;;;28.47;17.80;;;18.80;99.90;;;;;;5011346;28;20183;-67
2022/03/28 08:04:45;;;;;;;22.60;17.83;;;18.90;99.90;;;;;;5013874;28;20266;-67
2022/03/28 08:07:12;;;;;;;28.85;18.90;;;18.80;99.90;;;;;;5013640;28;20200;-67
2022/03/28 08:09:38;;;;;;;25.93;18.23;;;18.90;99.90;;;;;;5013942;28;20172;-67
2022/03/28 08:12:06;;;;;;;22.08;16.98;;;18.90;99.90;;;;;;5012977;28;20184;-66
2022/03/28 08:14:32;;;;;;;24.20;18.17;;;19.00;99.90;;;;;;5013515;28;20176;-66
2022/03/28 08:16:58;;;;;;;29.98;18.60;;;19.20;99.90;;;;;;5011923;28;20707;-66
2022/03/28 08:19:25;;;;;;;24.20;19.08;;;19.50;99.90;;;;;;5012790;28;20299;-66
2022/03/28 08:21:51;;;;;;;23.87;17.47;;;19.60;99.90;;;;;;5013025;28;20590;-67
2022/03/28 08:24:16;;;;;;;21.40;17.13;;;19.50;99.90;;;;;;5013158;28;20290;-66
2022/03/28 08:26:42;;;;;;;27.10;20.00;;;19.60;99.90;;;;;;5012638;28;20718;-67
2022/03/28 08:29:08;;;;;;;24.58;17.25;;;19.90;99.90;;;;;;5012812;28;20179;-66
2022/03/28 08:31:34;;;;;;;22.60;17.80;;;20.40;99.90;;;;;;5013074;28;20242;-67
2022/03/28 08:34:00;;;;;;;23.30;19.17;;;20.50;99.90;;;;;;4994410;28;20561;-67
2022/03/28 08:36:25;;;;;;;23.90;18.20;;;20.40;99.90;;;;;;4993323;28;20197;-67
2022/03/28 08:38:52;;;;;;;24.38;18.40;;;20.50;99.90;;;;;;4993316;28;20184;-67
2022/03/28 08:41:19;;;;;;;25.60;19.33;;;20.80;99.90;;;;;;4991898;28;20188;-65
2022/03/28 08:43:45;;;;;;;27.38;19.77;;;21.20;99.90;;;;;;4993119;28;20203;-66
2022/03/28 08:46:15;;;;;;;23.98;18.83;;;21.40;99.90;;;;;;4991590;28;20207;-67
2022/03/28 08:48:42;;;;;;;25.08;18.85;;;21.50;99.90;;;;;;4993467;28;20580;-66
2022/03/28 08:51:10;;;;;;;25.70;19.38;;;21.80;99.90;;;;;;4993359;28;20216;-66
2022/03/28 08:53:36;;;;;;;26.75;19.73;;;22.10;99.90;;;;;;4993436;28;20179;-66
2022/03/28 08:56:03;;;;;;;29.98;19.85;;;22.40;99.90;;;;;;4991550;28;20172;-67
2022/03/28 08:58:29;;;;;;;26.38;18.92;;;22.80;99.90;;;;;;4993517;28;20235;-67
2022/03/28 09:00:55;;;;;;;27.70;18.85;;;23.10;99.90;;;;;;4992825;28;20251;-66
2022/03/28 09:03:34;;;;;;;24.45;18.38;;;22.90;99.90;;;;;;4993084;28;20207;-67
2022/03/28 09:05:59;;;;;;;26.08;19.38;;;22.70;99.90;;;;;;4992781;28;20180;-67
2022/03/28 09:08:25;;;;;;;27.40;19.45;;;22.90;99.90;;;;;;4993351;28;20157;-67
2022/03/28 09:10:51;;;;;;;24.77;19.33;;;23.30;99.90;;;;;;4991744;28;20185;-67
2022/03/28 09:13:16;;;;;;;25.20;20.08;;;23.40;99.90;;;;;;4993144;28;20529;-66
2022/03/28 09:15:42;;;;;;;27.63;20.13;;;23.50;99.90;;;;;;4992949;28;20585;-67
2022/03/28 09:18:08;;;;;;;32.13;20.00;;;23.50;99.90;;;;;;4993004;28;20216;-66
2022/03/28 09:20:36;;;;;;;26.15;21.55;;;23.50;99.90;;;;;;4993281;28;20181;-67
2022/03/28 09:23:30;;;;;;;24.88;19.38;;;23.30;99.90;;;;;;4992604;28;20254;-66
2022/03/28 09:25:57;;;;;;;25.27;19.50;;;23.20;99.90;;;;;;4991101;28;20179;-67
2022/03/28 09:28:40;;;;;;;25.73;18.98;;;23.50;99.90;;;;;;5002241;28;20176;-67
2022/03/28 09:31:18;;;;;;;27.17;19.45;;;24.00;99.90;;;;;;5003363;28;20168;-67
2022/03/28 09:33:57;;;;;;;28.48;20.50;;;24.30;99.90;;;;;;5001817;28;20212;-67
2022/03/28 09:36:48;;;;;;;23.67;18.85;;;24.30;99.90;;;;;;4992361;28;20343;-66
2022/03/28 09:39:24;;;;;;;24.80;19.30;;;24.30;99.90;;;;;;4992608;28;20181;-66
2022/03/28 09:42:02;;;;;;;28.15;20.13;;;24.60;99.90;;;;;;4993015;28;20176;-67
2022/03/28 09:44:38;;;;;;;25.10;18.77;;;24.90;99.90;;;;;;4991770;28;20254;-66
2022/03/28 09:47:12;;;;;;;26.48;18.70;;;25.20;99.90;;;;;;5001225;28;20200;-67
2022/03/28 09:49:41;;;;;;;26.90;19.45;;;25.70;99.90;;;;;;5011983;28;20159;-66
2022/03/28 09:52:11;;;;;;;25.88;20.45;;;26.30;99.90;;;;;;5010541;28;20176;-67
2022/03/28 09:54:57;;;;;;;28.27;21.50;;;26.40;99.90;;;;;;5011618;28;20219;-66
2022/03/28 09:57:32;;;;;;;26.40;20.40;;;26.50;99.90;;;;;;5011586;28;20202;-67
2022/03/28 10:00:26;;;;;;;27.10;21.27;;;26.60;99.90;;;;;;5011784;28;20167;-66
2022/03/28 10:02:54;;;;;;;26.83;19.23;;;26.30;99.90;;;;;;5000850;28;20200;-67
2022/03/28 10:05:21;;;;;;;27.63;20.63;;;26.50;99.90;;;;;;4992085;28;20201;-66
2022/03/28 10:07:50;;;;;;;26.30;20.15;;;26.40;99.90;;;;;;4992255;28;20235;-67
2022/03/28 10:10:15;;;;;;;29.45;20.08;;;26.20;99.90;;;;;;5007960;28;20182;-67
2022/03/28 10:12:42;;;;;;;25.15;19.15;;;26.20;99.90;;;;;;5011890;28;20172;-67
2022/03/28 10:15:07;;;;;;;28.65;20.35;;;26.40;99.90;;;;;;5011246;28;20188;-66
2022/03/28 10:17:33;;;;;;;23.80;20.40;;;26.40;99.90;;;;;;5012015;28;20203;-66
2022/03/28 10:20:00;;;;;;;21.55;17.65;;;26.40;99.90;;;;;;5011432;28;20184;-66
2022/03/28 10:22:35;;;;;;;23.00;18.15;;;26.40;99.90;;;;;;5011649;28;20176;-66
2022/03/28 10:25:05;;;;;;;22.98;16.95;;;25.70;99.90;;;;;;5011123;28;20204;-66
2022/03/28 10:27:33;;;;;;;22.23;17.92;;;25.20;99.90;;;;;;5011193;28;20271;-66
2022/03/28 10:30:32;;;;;;;21.00;17.70;;;24.80;99.90;;;;;;5011655;28;20176;-66
2022/03/28 10:33:11;;;;;;;26.27;18.08;;;24.60;99.90;;;;;;4989062;28;20195;-66
2022/03/28 10:35:37;;;;;;;25.40;17.02;;;24.30;99.90;;;;;;5011322;28;20405;-66
2022/03/28 10:38:14;;;;;;;23.88;18.25;;;23.90;99.90;;;;;;5011119;28;20199;-67
2022/03/28 10:41:02;;;;;;;23.88;18.30;;;24.20;99.90;;;;;;5011521;28;20172;-67
2022/03/28 10:43:31;;;;;;;26.45;18.35;;;24.70;99.90;;;;;;5011426;28;20262;-66
2022/03/28 10:46:02;;;;;;;24.27;19.55;;;24.90;99.90;;;;;;5010421;28;20176;-66
2022/03/28 10:48:37;;;;;;;23.90;19.40;;;25.00;99.90;;;;;;5011532;28;20191;-66
2022/03/28 10:51:06;;;;;;;28.92;19.58;;;24.80;99.90;;;;;;5011044;28;20583;-66
2022/03/28 10:53:41;;;;;;;26.45;19.80;;;24.90;99.90;;;;;;5011557;28;20263;-66
2022/03/28 10:56:13;;;;;;;23.92;18.17;;;25.20;99.90;;;;;;5012158;28;20658;-67
2022/03/28 10:58:45;;;;;;;27.35;19.85;;;25.20;99.90;;;;;;5015197;28;20204;-67
2022/03/28 11:01:11;;;;;;;25.95;18.20;;;25.10;99.90;;;;;;5013702;28;20226;-66
2022/03/28 11:03:38;;;;;;;23.92;18.63;;;25.60;99.90;;;;;;5015139;28;20235;-67
2022/03/28 11:06:04;;;;;;;28.42;20.23;;;25.80;99.90;;;;;;5014444;28;20603;-67
2022/03/28 11:08:36;;;;;;;25.90;20.40;;;25.70;99.90;;;;;;5015019;28;20168;-66
2022/03/28 11:11:22;;;;;;;25.00;19.05;;;25.80;99.90;;;;;;5013448;28;20176;-67
2022/03/28 11:14:17;;;;;;;27.27;18.85;;;25.90;99.90;;;;;;5015404;28;20626;-66
2022/03/28 11:16:44;;;;;;;27.00;19.25;;;26.00;99.90;;;;;;4987348;28;20232;-67
2022/03/28 11:19:31;;;;;;;23.27;18.98;;;26.20;99.90;;;;;;5013346;28;20665;-67
2022/03/28 11:22:11;;;;;;;24.70;20.10;;;26.50;99.90;;;;;;5014794;28;20176;-66
2022/03/28 11:24:46;;;;;;;26.02;19.85;;;26.60;99.90;;;;;;5014620;28;20681;-67
2022/03/28 11:27:14;;;;;;;23.95;19.33;;;26.40;99.90;;;;;;5014388;28;20661;-67
2022/03/28 11:29:41;;;;;;;24.80;19.38;;;26.20;99.90;;;;;;5014722;28;20199;-67
2022/03/28 11:32:09;;;;;;;24.88;19.25;;;26.50;99.90;;;;;;5014421;28;20168;-66
2022/03/28 11:34:36;;;;;;;26.92;18.50;;;26.60;99.90;;;;;;5014467;28;20169;-67
2022/03/28 11:37:03;;;;;;;30.60;18.85;;;26.60;99.90;;;;;;5014291;28;20287;-67
2022/03/28 11:39:31;;;;;;;25.23;19.48;;;27.10;99.90;;;;;;5014377;28;20535;-67
2022/03/28 11:41:58;;;;;;;22.77;18.95;;;27.60;99.90;;;;;;5014377;28;20179;-67
2022/03/28 11:44:25;;;;;;;25.42;20.58;;;28.00;99.90;;;;;;5014426;28;20567;-67
2022/03/28 11:47:00;;;;;;;27.45;21.17;;;27.90;99.90;;;;;;5012213;28;20196;-67
2022/03/28 11:49:27;;;;;;;32.28;19.70;;;27.40;99.90;;;;;;5014339;28;20258;-66
2022/03/28 11:51:52;;;;;;;25.17;17.95;;;26.70;99.40;;;;;;5014313;28;20172;-66
2022/03/28 11:54:20;;;;;;;23.90;17.73;;;25.80;99.10;;;;;;5014226;28;20180;-66
2022/03/28 11:59:39;;;;;;;27.90;18.50;;;26.10;99.90;;;;;;5014373;28;20203;-67
2022/03/28 12:02:08;;;;;;;25.80;19.05;;;26.20;99.90;;;;;;5013992;28;20226;-67
2022/03/28 12:04:44;;;;;;;25.50;17.83;;;25.70;99.90;;;;;;5013782;28;20195;-67
2022/03/28 12:07:10;;;;;;;22.02;17.30;;;25.20;99.90;;;;;;5013067;28;20196;-66
2022/03/28 12:09:44;;;;;;;25.10;17.85;;;25.00;99.90;;;;;;5013837;28;20223;-66
2022/03/28 12:12:09;;;;;;;24.92;18.05;;;25.20;99.90;;;;;;5013815;28;20203;-67
2022/03/28 12:14:35;;;;;;;23.63;18.67;;;25.00;99.90;;;;;;5013678;28;20572;-67
2022/03/28 12:17:00;;;;;;;24.13;18.17;;;25.00;99.90;;;;;;5013532;28;20226;-66
2022/03/28 12:19:28;;;;;;;24.80;17.00;;;25.00;99.90;;;;;;5013793;28;20527;-66
2022/03/28 12:21:56;;;;;;;25.17;18.52;;;25.10;99.90;;;;;;5012365;28;20181;-67
2022/03/28 12:24:24;;;;;;;25.23;18.55;;;24.90;99.90;;;;;;5013628;28;20611;-67
2022/03/28 12:26:51;;;;;;;24.38;18.23;;;24.90;99.90;;;;;;5013261;28;20199;-66
2022/03/28 12:29:17;;;;;;;22.38;16.55;;;25.00;99.90;;;;;;5013595;28;20176;-67
2022/03/28 12:31:45;;;;;;;25.02;16.75;;;25.40;99.90;;;;;;5013840;28;20172;-66
2022/03/28 12:34:12;;;;;;;26.08;17.17;;;25.80;99.90;;;;;;5013412;28;20168;-67
2022/03/28 12:36:38;;;;;;;22.13;17.10;;;25.90;99.90;;;;;;5013067;28;20196;-67
2022/03/28 12:39:09;;;;;;;24.38;17.45;;;26.10;99.20;;;;;;5013294;28;20182;-66
2022/03/28 12:41:46;;;;;;;20.65;16.42;;;26.00;98.50;;;;;;5013420;28;20720;-66